Mc Kenzie, Alabama
Current Conditions -  °F | °C
As of 2:53 PM on Thursday 23 Oct 2014 (Local Time) from KGZH Reporting Station
Clear Clear  
Wind Chill: 76°   Ceiling: Unl
Heat Index: 76°   Visibility: 10mi
Dew Point: 40°   Wind: 7mph
Humidity: 27%   Direction: 60°ENE
Pressure: 30.04"   Gusts: NA
Location:  31.548°N, 86.7591°W
Report Text: KGZH 231953Z AUTO 06006KT 10SM CLR 24/04 A3004 RMK AO2 SLP169 T02440044
Loading
Personal Weather Stations






























Interactive Weather Map
Tropical Storm Tracking
New forecast layout! Learn more

10-Day Weather Forecast

Advertisements
Track Severe Weather on mobile